Time;durP1;ratioP1;P1;durP2;ratioP2;P2;SDS_P1;SDS_P2;PMS_P1;PMS_P2;Temp;Humidity;BMP_temperature;BMP_pressure;BME280_temperature;BME280_humidity;BME280_pressure;Samples;Min_cycle;Max_cycle;Signal;HPM_P1;HPM_P2
2023/01/22 00:04:36;;;;;;;;;;;14.90;57.80;;;;;;10329122;28;92572;-60
2023/01/22 00:09:38;;;;;;;;;;;14.90;57.60;;;;;;10330473;28;94524;-60
2023/01/22 00:14:41;;;;;;;;;;;14.90;57.50;;;;;;10329853;28;93072;-60
2023/01/22 00:19:43;;;;;;;;;;;14.80;57.40;;;;;;10329333;28;93661;-60
2023/01/22 00:24:45;;;;;;;;;;;14.80;58.50;;;;;;10337729;28;92837;-60
2023/01/22 00:29:47;;;;;;;;;;;14.90;57.50;;;;;;10335236;28;96772;-60
2023/01/22 00:34:51;;;;;;;;;;;14.90;57.50;;;;;;10335967;28;93484;-60
2023/01/22 00:39:53;;;;;;;;;;;14.80;58.40;;;;;;10336870;28;93491;-60
2023/01/22 00:44:55;;;;;;;;;;;14.80;57.40;;;;;;10336325;28;93489;-59
2023/01/22 00:49:57;;;;;;;;;;;14.80;57.60;;;;;;10336587;28;93508;-60
2023/01/22 00:54:58;;;;;;;;;;;14.80;57.50;;;;;;10336750;28;93265;-59
2023/01/22 01:00:00;;;;;;;;;;;14.80;57.50;;;;;;10336334;28;94226;-60
2023/01/22 01:05:02;;;;;;;;;;;14.70;57.40;;;;;;10336301;28;93951;-60
2023/01/22 01:10:04;;;;;;;;;;;14.70;57.50;;;;;;10335569;28;94484;-60
2023/01/22 01:15:06;;;;;;;;;;;14.80;57.70;;;;;;10334231;28;94442;-60
2023/01/22 01:20:08;;;;;;;;;;;14.90;57.60;;;;;;10332609;28;95530;-60
2023/01/22 01:25:10;;;;;;;;;;;14.90;57.30;;;;;;10335447;28;94751;-60
2023/01/22 01:30:12;;;;;;;;;;;14.90;57.20;;;;;;10335674;28;93833;-60
2023/01/22 01:35:14;;;;;;;;;;;14.90;57.10;;;;;;10334617;28;93543;-60
2023/01/22 01:40:16;;;;;;;;;;;14.90;57.10;;;;;;10334451;28;94756;-60
2023/01/22 01:45:37;;;;;;;;;;;14.90;57.10;;;;;;10335581;28;94236;-60
2023/01/22 01:50:40;;;;;;;;;;;14.90;57.10;;;;;;10334985;28;93430;-59
2023/01/22 01:55:42;;;;;;;;;;;14.80;57.10;;;;;;10317121;28;92833;-59
2023/01/22 02:06:04;;;;;;;;;;;14.80;58.10;;;;;;10482566;22;94781;-61
2023/01/22 02:11:06;;;;;;;;;;;14.80;57.10;;;;;;10331607;28;97592;-62
2023/01/22 02:16:10;;;;;;;;;;;14.80;57.10;;;;;;10316582;28;94591;-62
2023/01/22 02:21:31;;;;;;;;;;;14.70;56.90;;;;;;10314776;28;93553;-61
2023/01/22 02:26:33;;;;;;;;;;;14.70;56.80;;;;;;10313829;28;94426;-61
2023/01/22 02:31:35;;;;;;;;;;;14.70;56.90;;;;;;10327221;28;93325;-60
2023/01/22 02:36:38;;;;;;;;;;;14.80;56.80;;;;;;10330387;28;94621;-60
2023/01/22 02:41:40;;;;;;;;;;;14.90;56.50;;;;;;10361014;28;93636;-60
2023/01/22 02:46:42;;;;;;;;;;;14.90;56.30;;;;;;10356496;28;92767;-61
2023/01/22 02:51:43;;;;;;;;;;;14.90;56.20;;;;;;10373647;28;93643;-61
2023/01/22 02:56:45;;;;;;;;;;;14.90;56.10;;;;;;10374051;28;94284;-60
2023/01/22 03:01:47;;;;;;;;;;;14.90;56.30;;;;;;10369243;28;96817;-60
2023/01/22 03:06:49;;;;;;;;;;;14.90;56.10;;;;;;10353783;28;94929;-60
2023/01/22 03:11:50;;;;;;;;;;;14.90;56.10;;;;;;10372559;28;94019;-60
2023/01/22 03:22:14;;;;;;;;;;;14.80;56.00;;;;;;10374190;28;94491;-60
2023/01/22 03:27:16;;;;;;;;;;;14.80;56.10;;;;;;10373508;28;94441;-60
2023/01/22 03:32:18;;;;;;;;;;;14.80;56.10;;;;;;10372993;28;93439;-61
2023/01/22 03:37:20;;;;;;;;;;;14.80;56.00;;;;;;10374691;28;93473;-60
2023/01/22 03:42:23;;;;;;;;;;;14.70;56.10;;;;;;10373683;28;94719;-60
2023/01/22 03:47:24;;;;;;;;;;;14.70;56.10;;;;;;10355421;28;92550;-61
2023/01/22 03:52:26;;;;;;;;;;;14.70;56.20;;;;;;10369696;28;96194;-61
2023/01/22 03:57:29;;;;;;;;;;;14.80;56.10;;;;;;10372035;28;94245;-61
2023/01/22 04:02:30;;;;;;;;;;;14.80;55.90;;;;;;10370923;28;92489;-61
2023/01/22 04:07:32;;;;;;;;;;;14.80;55.90;;;;;;10371890;28;93522;-61
2023/01/22 04:12:34;;;;;;;;;;;14.70;55.90;;;;;;10372654;28;93430;-61
2023/01/22 04:17:36;;;;;;;;;;;14.80;56.00;;;;;;10372182;28;94076;-61
2023/01/22 04:22:37;;;;;;;;;;;14.70;55.80;;;;;;10354870;28;93556;-61
2023/01/22 04:27:39;;;;;;;;;;;14.80;55.90;;;;;;10372906;28;93684;-61
2023/01/22 04:32:40;;;;;;;;;;;14.80;55.90;;;;;;10371799;28;93504;-62
2023/01/22 04:37:42;;;;;;;;;;;14.80;55.80;;;;;;10370663;28;93460;-61
2023/01/22 04:42:44;;;;;;;;;;;14.80;55.70;;;;;;10369484;28;96930;-60
2023/01/22 06:05:17;;;;;;;;;;;14.80;55.60;;;;;;10351127;28;92739;-61
2023/01/22 06:10:19;;;;;;;;;;;14.80;55.60;;;;;;10375199;28;94713;-61
2023/01/22 06:15:21;;;;;;;;;;;14.80;55.70;;;;;;10376410;28;94355;-61
2023/01/22 06:20:22;;;;;;;;;;;14.90;55.80;;;;;;10374863;28;94487;-63
2023/01/22 06:25:24;;;;;;;;;;;15.00;55.50;;;;;;10356658;28;93937;-61
2023/01/22 06:30:26;;;;;;;;;;;15.30;55.30;;;;;;10375298;28;94210;-61
2023/01/22 06:35:28;;;;;;;;;;;15.40;54.90;;;;;;10374457;28;93371;-61
2023/01/22 06:40:29;;;;;;;;;;;15.60;54.50;;;;;;10372693;28;95818;-61
2023/01/22 06:45:31;;;;;;;;;;;15.90;54.20;;;;;;10374251;28;93411;-61
2023/01/22 06:50:33;;;;;;;;;;;16.00;53.90;;;;;;10373772;28;93467;-61
2023/01/22 06:55:34;;;;;;;;;;;16.10;53.70;;;;;;10374542;28;94546;-61
2023/01/22 07:00:36;;;;;;;;;;;16.30;53.40;;;;;;10355188;28;94120;-61
2023/01/22 07:05:38;;;;;;;;;;;16.40;53.20;;;;;;10373660;28;93561;-61
2023/01/22 07:10:40;;;;;;;;;;;16.50;53.10;;;;;;10373031;28;93635;-61
2023/01/22 07:15:42;;;;;;;;;;;16.50;53.00;;;;;;10373445;28;92773;-61
2023/01/22 07:20:44;;;;;;;;;;;16.50;52.80;;;;;;10373050;28;93819;-62
2023/01/22 07:25:46;;;;;;;;;;;16.50;52.90;;;;;;10373385;28;93484;-60
2023/01/22 07:30:48;;;;;;;;;;;16.50;52.90;;;;;;10369879;28;97007;-61
2023/01/22 07:35:54;;;;;;;;;;;16.50;53.00;;;;;;10371461;28;93496;-61
2023/01/22 07:41:02;;;;;;;;;;;16.60;52.90;;;;;;10371948;28;93173;-62
2023/01/22 07:46:11;;;;;;;;;;;16.60;52.80;;;;;;10355705;28;94410;-61
2023/01/22 07:51:13;;;;;;;;;;;16.70;52.80;;;;;;10371146;28;93445;-61
2023/01/22 07:56:17;;;;;;;;;;;16.70;52.70;;;;;;10370831;28;94107;-61
2023/01/22 08:01:19;;;;;;;;;;;16.90;52.60;;;;;;10353504;28;93516;-61
2023/01/22 08:06:21;;;;;;;;;;;16.90;52.50;;;;;;10352677;28;92769;-61
2023/01/22 08:11:23;;;;;;;;;;;17.00;52.40;;;;;;10353333;28;93643;-61
2023/01/22 08:16:24;;;;;;;;;;;17.00;52.20;;;;;;10371585;28;94438;-61
2023/01/22 08:21:26;;;;;;;;;;;17.00;52.20;;;;;;10369108;28;96010;-61
2023/01/22 08:26:28;;;;;;;;;;;16.90;52.10;;;;;;10352228;28;93471;-61
2023/01/22 08:31:30;;;;;;;;;;;16.80;52.20;;;;;;10353408;28;93535;-60
2023/01/22 08:36:32;;;;;;;;;;;16.70;52.40;;;;;;10371466;28;94512;-62
2023/01/22 08:41:34;;;;;;;;;;;16.70;52.60;;;;;;10372953;28;94661;-61
2023/01/22 08:46:39;;;;;;;;;;;16.70;51.70;;;;;;10378834;28;93600;-61
2023/01/22 08:51:41;;;;;;;;;;;16.70;52.60;;;;;;10378760;28;93162;-60
2023/01/22 08:56:42;;;;;;;;;;;16.90;52.90;;;;;;10379038;28;92483;-61
2023/01/22 09:01:44;;;;;;;;;;;17.10;53.10;;;;;;10378060;28;93360;-61
2023/01/22 09:06:46;;;;;;;;;;;17.10;53.10;;;;;;10377114;28;92816;-60
2023/01/22 09:11:47;;;;;;;;;;;17.20;52.80;;;;;;10374110;28;95862;-61
2023/01/22 09:16:49;;;;;;;;;;;17.20;52.70;;;;;;10376596;28;93469;-61
2023/01/22 09:21:51;;;;;;;;;;;17.10;52.70;;;;;;10376585;28;93930;-61
2023/01/22 09:26:52;;;;;;;;;;;17.00;52.80;;;;;;10376694;28;93709;-61
2023/01/22 09:31:55;;;;;;;;;;;17.00;53.00;;;;;;10376254;28;93376;-61
2023/01/22 09:36:58;;;;;;;;;;;17.00;54.00;;;;;;10376943;28;93504;-61
2023/01/22 09:42:01;;;;;;;;;;;17.10;53.00;;;;;;10376555;28;94249;-61
2023/01/22 09:47:03;;;;;;;;;;;17.20;52.80;;;;;;10377809;28;93473;-62
2023/01/22 09:52:05;;;;;;;;;;;17.30;52.60;;;;;;10375665;28;92712;-61
2023/01/22 09:57:10;;;;;;;;;;;17.30;52.30;;;;;;10375953;28;93378;-61
2023/01/22 10:02:41;;;;;;;;;;;17.30;52.30;;;;;;10373175;28;96170;-61
2023/01/22 10:07:48;;;;;;;;;;;17.10;52.40;;;;;;10364833;28;93953;-61
2023/01/22 10:13:08;;;;;;;;;;;17.00;52.60;;;;;;10375552;28;94482;-61
2023/01/22 10:18:32;;;;;;;;;;;17.00;52.80;;;;;;10375092;28;94464;-61
2023/01/22 10:23:33;;;;;;;;;;;17.10;52.80;;;;;;10375479;28;94586;-61
2023/01/22 10:28:35;;;;;;;;;;;17.20;52.70;;;;;;10375741;28;93329;-61
2023/01/22 10:33:43;;;;;;;;;;;17.30;52.60;;;;;;10356542;28;93489;-61
2023/01/22 10:38:45;;;;;;;;;;;17.30;52.30;;;;;;10376025;28;92845;-61
2023/01/22 10:43:47;;;;;;;;;;;17.30;52.30;;;;;;10340144;28;93565;-61
2023/01/22 10:48:58;;;;;;;;;;;17.20;52.30;;;;;;10374461;28;94055;-61
2023/01/22 10:54:00;;;;;;;;;;;17.10;52.50;;;;;;10353660;28;95886;-62
2023/01/22 10:59:04;;;;;;;;;;;17.10;52.70;;;;;;10373182;28;93186;-61
2023/01/22 11:04:12;;;;;;;;;;;17.10;52.70;;;;;;10372283;28;93537;-60
2023/01/22 11:09:20;;;;;;;;;;;17.20;53.10;;;;;;10373390;28;93789;-61
2023/01/22 11:14:24;;;;;;;;;;;17.40;58.40;;;;;;10356404;28;93326;-62
2023/01/22 11:19:28;;;;;;;;;;;17.50;54.90;;;;;;10373320;28;94421;-60
2023/01/22 11:24:45;;;;;;;;;;;17.50;54.00;;;;;;10373744;28;93512;-62
2023/01/22 11:29:57;;;;;;;;;;;17.70;53.80;;;;;;10374937;28;93085;-61
2023/01/22 11:35:09;;;;;;;;;;;17.70;53.50;;;;;;10354279;28;93475;-62
2023/01/22 11:40:11;;;;;;;;;;;17.80;53.30;;;;;;10373461;28;94765;-62
2023/01/22 11:45:19;;;;;;;;;;;17.80;53.20;;;;;;10369429;28;95936;-61
2023/01/22 11:50:27;;;;;;;;;;;17.80;53.30;;;;;;10372787;28;94510;-61
2023/01/22 11:55:45;;;;;;;;;;;17.60;53.40;;;;;;10372458;28;94458;-62
2023/01/22 12:00:57;;;;;;;;;;;17.50;54.10;;;;;;10352563;28;93445;-61
2023/01/22 12:06:19;;;;;;;;;;;17.40;54.20;;;;;;10354062;28;94453;-62
2023/01/22 12:11:24;;;;;;;;;;;17.40;54.30;;;;;;10369726;28;93943;-62
2023/01/22 12:16:52;;;;;;;;;;;17.40;54.30;;;;;;10373715;28;93142;-62
2023/01/22 12:21:54;;;;;;;;;;;17.60;54.30;;;;;;10378952;28;92638;-62
2023/01/22 12:27:01;;;;;;;;;;;17.70;54.20;;;;;;10379781;28;94557;-62
2023/01/22 12:32:08;;;;;;;;;;;17.80;54.00;;;;;;10378767;28;93521;-62
2023/01/22 12:37:12;;;;;;;;;;;17.80;53.80;;;;;;10374838;28;96824;-62
2023/01/22 12:42:23;;;;;;;;;;;17.80;54.10;;;;;;10377837;28;93440;-61
2023/01/22 12:47:36;;;;;;;;;;;17.70;53.90;;;;;;10378783;28;93346;-61
2023/01/22 12:52:39;;;;;;;;;;;17.60;54.20;;;;;;10376936;28;93143;-61
2023/01/22 12:57:41;;;;;;;;;;;17.60;54.30;;;;;;10378152;28;94139;-61
2023/01/22 13:02:43;;;;;;;;;;;17.60;54.20;;;;;;10377054;28;93397;-60
2023/01/22 13:07:45;;;;;;;;;;;17.70;54.20;;;;;;10377707;28;93412;-61
2023/01/22 13:12:48;;;;;;;;;;;17.80;54.00;;;;;;10360966;28;93504;-61
2023/01/22 13:17:54;;;;;;;;;;;17.90;53.90;;;;;;10377255;28;94285;-61
2023/01/22 13:23:10;;;;;;;;;;;17.90;53.80;;;;;;10360927;28;93527;-61
2023/01/22 13:28:16;;;;;;;;;;;17.90;53.90;;;;;;10374375;28;97010;-61
2023/01/22 13:33:17;;;;;;;;;;;17.80;54.10;;;;;;10376493;28;94036;-61
2023/01/22 13:38:19;;;;;;;;;;;17.70;54.20;;;;;;10375186;28;93515;-61
2023/01/22 13:43:21;;;;;;;;;;;17.70;54.40;;;;;;10357800;28;93229;-61
2023/01/22 13:48:24;;;;;;;;;;;17.70;54.40;;;;;;10376122;28;92958;-61
2023/01/22 13:53:30;;;;;;;;;;;17.80;54.40;;;;;;10375373;28;93449;-61
2023/01/22 13:58:40;;;;;;;;;;;17.80;54.30;;;;;;10375593;28;93384;-61
2023/01/22 14:03:56;;;;;;;;;;;17.90;54.20;;;;;;10375247;28;92751;-61
2023/01/22 14:08:58;;;;;;;;;;;17.90;54.00;;;;;;10376522;28;94515;-61
2023/01/22 14:14:00;;;;;;;;;;;17.80;54.10;;;;;;10374869;28;93491;-61
2023/01/22 14:19:01;;;;;;;;;;;17.70;54.20;;;;;;10372364;28;95857;-61
2023/01/22 14:24:03;;;;;;;;;;;17.70;54.30;;;;;;10356100;28;94201;-61
2023/01/22 14:29:05;;;;;;;;;;;17.60;54.30;;;;;;10374172;28;94609;-61
2023/01/22 14:34:09;;;;;;;;;;;17.70;54.10;;;;;;10373498;28;94407;-61
2023/01/22 14:39:11;;;;;;;;;;;17.80;53.90;;;;;;10371805;28;92704;-61
2023/01/22 14:44:13;;;;;;;;;;;17.90;53.70;;;;;;10371975;28;94455;-61
2023/01/22 14:49:15;;;;;;;;;;;17.90;53.40;;;;;;10355077;28;94491;-61
2023/01/22 14:54:17;;;;;;;;;;;17.80;53.40;;;;;;10375058;28;93343;-62
2023/01/22 14:59:19;;;;;;;;;;;17.70;53.50;;;;;;10370961;28;94393;-62
2023/01/22 15:04:21;;;;;;;;;;;17.70;53.70;;;;;;10370842;28;93488;-62
2023/01/22 15:09:23;;;;;;;;;;;17.70;53.70;;;;;;10353764;28;95959;-61
2023/01/22 15:14:25;;;;;;;;;;;17.70;53.70;;;;;;10373207;28;93554;-61
2023/01/22 15:19:26;;;;;;;;;;;17.80;53.50;;;;;;10373658;28;93623;-62
2023/01/22 15:24:32;;;;;;;;;;;17.90;53.40;;;;;;10372380;28;93461;-62
2023/01/22 15:29:34;;;;;;;;;;;18.00;53.10;;;;;;10373453;28;94431;-62
2023/01/22 15:34:36;;;;;;;;;;;17.90;53.00;;;;;;10371770;28;93755;-62
2023/01/22 15:39:38;;;;;;;;;;;17.80;53.00;;;;;;10371981;28;93861;-61
2023/01/22 15:44:40;;;;;;;;;;;17.70;53.30;;;;;;10371381;28;91774;-61
2023/01/22 15:49:42;;;;;;;;;;;17.70;53.30;;;;;;10371653;28;94796;-61
2023/01/22 15:54:45;;;;;;;;;;;17.80;53.40;;;;;;10372279;28;93283;-61
2023/01/22 15:59:47;;;;;;;;;;;17.90;53.40;;;;;;10367398;28;95848;-61
2023/01/22 16:04:49;;;;;;;;;;;18.00;53.20;;;;;;10372260;28;93330;-61
2023/01/22 16:09:50;;;;;;;;;;;18.10;53.00;;;;;;10372677;28;94527;-61
2023/01/22 16:14:52;;;;;;;;;;;18.10;53.00;;;;;;10371449;28;93800;-61
2023/01/22 16:19:54;;;;;;;;;;;18.00;53.10;;;;;;10370608;28;94285;-62
2023/01/22 16:24:55;;;;;;;;;;;17.90;53.20;;;;;;10370772;28;93655;-62
2023/01/22 16:29:57;;;;;;;;;;;17.80;53.50;;;;;;10370977;28;93463;-60
2023/01/22 16:34:59;;;;;;;;;;;17.80;54.00;;;;;;10369853;28;92757;-61
2023/01/22 16:40:02;;;;;;;;;;;17.80;55.00;;;;;;10369658;28;93407;-60
2023/01/22 16:45:04;;;;;;;;;;;18.00;55.10;;;;;;10369114;28;93460;-60
2023/01/22 16:50:05;;;;;;;;;;;18.30;54.90;;;;;;10367863;28;96025;-61
2023/01/22 16:55:07;;;;;;;;;;;18.40;54.60;;;;;;10369676;28;93300;-60
2023/01/22 17:00:10;;;;;;;;;;;18.50;54.50;;;;;;10369968;28;93356;-61
2023/01/22 17:05:12;;;;;;;;;;;18.50;53.90;;;;;;10356924;28;94443;-61
2023/01/22 17:10:14;;;;;;;;;;;18.40;53.90;;;;;;10358991;28;94498;-62
2023/01/22 17:15:17;;;;;;;;;;;18.30;55.00;;;;;;10376242;28;94384;-61
2023/01/22 17:20:18;;;;;;;;;;;18.30;57.20;;;;;;10377276;28;94456;-61
2023/01/22 17:25:21;;;;;;;;;;;18.40;61.20;;;;;;10377110;28;93587;-61
2023/01/22 17:30:22;;;;;;;;;;;18.50;62.50;;;;;;10375522;28;93406;-61
2023/01/22 17:35:24;;;;;;;;;;;18.60;59.50;;;;;;10376219;28;94466;-61
2023/01/22 17:40:26;;;;;;;;;;;18.60;58.70;;;;;;10373462;28;96335;-62
2023/01/22 17:45:28;;;;;;;;;;;18.50;58.30;;;;;;10376633;28;94175;-62
2023/01/22 17:50:29;;;;;;;;;;;18.40;58.00;;;;;;10376784;28;92898;-61
2023/01/22 17:55:31;;;;;;;;;;;18.30;57.90;;;;;;10375996;28;93288;-60
2023/01/22 18:00:35;;;;;;;;;;;18.20;57.70;;;;;;10358752;28;93359;-62
2023/01/22 18:05:37;;;;;;;;;;;18.30;57.50;;;;;;10374519;28;93764;-61
2023/01/22 18:10:38;;;;;;;;;;;18.40;57.40;;;;;;10358047;28;94508;-62
2023/01/22 18:15:44;;;;;;;;;;;18.40;57.30;;;;;;10375936;28;92714;-61
2023/01/22 18:20:46;;;;;;;;;;;18.50;57.20;;;;;;10375233;28;93391;-62
2023/01/22 18:25:49;;;;;;;;;;;18.60;56.90;;;;;;10357466;28;94395;-62
2023/01/22 18:30:51;;;;;;;;;;;18.70;56.60;;;;;;10372514;28;96976;-62
2023/01/22 18:35:53;;;;;;;;;;;18.80;56.50;;;;;;10374859;28;94450;-63
2023/01/22 18:40:55;;;;;;;;;;;18.80;56.40;;;;;;10372327;28;93500;-62
2023/01/22 18:46:01;;;;;;;;;;;18.70;56.10;;;;;;10374954;28;94424;-62
2023/01/22 18:51:04;;;;;;;;;;;18.60;56.00;;;;;;10374102;28;94587;-61
2023/01/22 18:56:07;;;;;;;;;;;18.60;56.00;;;;;;10374749;28;94324;-63
2023/01/22 19:01:10;;;;;;;;;;;18.70;55.90;;;;;;10354950;28;94231;-61
2023/01/22 19:06:14;;;;;;;;;;;18.70;55.80;;;;;;10374410;28;93466;-62
2023/01/22 19:11:16;;;;;;;;;;;18.80;56.90;;;;;;10374253;28;94497;-62
2023/01/22 19:16:21;;;;;;;;;;;18.80;56.50;;;;;;10372038;28;112637;-61
2023/01/22 19:21:23;;;;;;;;;;;18.70;56.10;;;;;;10370868;28;95963;-61
2023/01/22 19:26:33;;;;;;;;;;;18.70;56.00;;;;;;10373055;28;94471;-61
2023/01/22 19:31:42;;;;;;;;;;;18.60;56.00;;;;;;10354221;28;93468;-61
2023/01/22 19:36:44;;;;;;;;;;;18.70;56.00;;;;;;10354340;28;93466;-61
2023/01/22 19:41:46;;;;;;;;;;;18.80;55.90;;;;;;10372613;28;95541;-60
2023/01/22 19:46:48;;;;;;;;;;;18.90;55.70;;;;;;10372668;28;94000;-61
2023/01/22 19:51:49;;;;;;;;;;;19.00;55.50;;;;;;10372514;28;94706;-61
2023/01/22 19:56:52;;;;;;;;;;;19.10;55.40;;;;;;10355574;28;93495;-61
2023/01/22 20:01:54;;;;;;;;;;;19.20;55.10;;;;;;10372260;28;94275;-61
2023/01/22 20:06:57;;;;;;;;;;;19.10;55.20;;;;;;10353277;28;94434;-61
2023/01/22 20:11:59;;;;;;;;;;;19.00;55.30;;;;;;10350023;28;96062;-61
2023/01/22 20:17:01;;;;;;;;;;;18.90;55.60;;;;;;10370723;28;94442;-62
2023/01/22 20:22:05;;;;;;;;;;;18.90;55.70;;;;;;10371817;28;93704;-61
2023/01/22 20:27:07;;;;;;;;;;;19.00;55.70;;;;;;10370729;28;93522;-61
2023/01/22 20:32:09;;;;;;;;;;;19.10;55.70;;;;;;10370549;28;94627;-61
2023/01/22 20:37:11;;;;;;;;;;;19.20;55.70;;;;;;10370188;28;93856;-62
2023/01/22 20:42:12;;;;;;;;;;;19.20;55.70;;;;;;10377265;28;93421;-62
2023/01/22 20:47:14;;;;;;;;;;;19.20;55.70;;;;;;10378053;28;91722;-62
2023/01/22 20:52:16;;;;;;;;;;;19.10;55.80;;;;;;10378233;28;94617;-62
2023/01/22 20:57:18;;;;;;;;;;;19.00;56.00;;;;;;10377523;28;93331;-62
2023/01/22 21:02:21;;;;;;;;;;;19.00;56.10;;;;;;10374576;28;96991;-62
2023/01/22 21:07:23;;;;;;;;;;;19.10;56.10;;;;;;10377107;28;93435;-62
2023/01/22 21:12:26;;;;;;;;;;;19.10;55.90;;;;;;10376658;28;93443;-62
2023/01/22 21:17:27;;;;;;;;;;;18.90;56.00;;;;;;10358714;28;93516;-61
2023/01/22 21:22:29;;;;;;;;;;;18.80;56.10;;;;;;10376647;28;93556;-61
2023/01/22 21:27:31;;;;;;;;;;;18.70;56.40;;;;;;10377161;28;93851;-62
2023/01/22 21:32:32;;;;;;;;;;;18.60;60.40;;;;;;10358688;28;94092;-62
2023/01/22 21:37:34;;;;;;;;;;;18.50;60.40;;;;;;10373925;28;92749;-62
2023/01/22 21:47:56;;;;;;;;;;;18.30;60.00;;;;;;10372581;28;93486;-62
2023/01/22 21:52:58;;;;;;;;;;;18.20;60.00;;;;;;10372893;28;95900;-62
2023/01/22 21:57:59;;;;;;;;;;;18.10;60.00;;;;;;10374986;28;93784;-62
2023/01/22 22:03:01;;;;;;;;;;;18.00;60.00;;;;;;10356814;28;93411;-62
2023/01/22 22:08:03;;;;;;;;;;;17.80;60.00;;;;;;10375454;28;93590;-63
2023/01/22 22:13:05;;;;;;;;;;;17.70;59.90;;;;;;10357488;28;94238;-63
2023/01/22 22:18:07;;;;;;;;;;;17.60;59.90;;;;;;10374789;28;93910;-63
2023/01/22 22:23:08;;;;;;;;;;;17.60;59.90;;;;;;10374550;28;93264;-63
2023/01/22 22:28:10;;;;;;;;;;;17.50;59.90;;;;;;10373726;28;91929;-62
2023/01/22 22:33:12;;;;;;;;;;;17.40;59.90;;;;;;10374803;28;94569;-63
2023/01/22 22:38:14;;;;;;;;;;;17.30;60.00;;;;;;10374774;28;93509;-63
2023/01/22 22:43:15;;;;;;;;;;;17.20;59.80;;;;;;10370831;28;96155;-63
2023/01/22 22:48:18;;;;;;;;;;;17.10;59.70;;;;;;10373826;28;92888;-61
2023/01/22 22:53:20;;;;;;;;;;;17.10;59.80;;;;;;10373619;28;93580;-62
2023/01/22 22:58:21;;;;;;;;;;;17.00;59.80;;;;;;10373934;28;94294;-62
2023/01/22 23:03:23;;;;;;;;;;;16.90;59.70;;;;;;10372109;28;94233;-62
2023/01/22 23:08:25;;;;;;;;;;;16.90;59.70;;;;;;10373271;28;94388;-62
2023/01/22 23:13:26;;;;;;;;;;;16.80;59.50;;;;;;10373591;28;94505;-62
2023/01/22 23:18:29;;;;;;;;;;;16.70;59.40;;;;;;10374053;28;92848;-63
2023/01/22 23:23:30;;;;;;;;;;;16.70;59.50;;;;;;10372568;28;94341;-63
2023/01/22 23:28:32;;;;;;;;;;;16.60;59.50;;;;;;10372387;28;94472;-63
2023/01/22 23:33:34;;;;;;;;;;;16.60;59.30;;;;;;10370762;28;96898;-62
2023/01/22 23:38:36;;;;;;;;;;;16.50;59.50;;;;;;10372107;28;93091;-62
2023/01/22 23:43:38;;;;;;;;;;;16.50;59.20;;;;;;10371854;28;94476;-62
2023/01/22 23:48:40;;;;;;;;;;;16.40;59.20;;;;;;10371851;28;93665;-62
2023/01/22 23:53:43;;;;;;;;;;;16.40;59.00;;;;;;10372315;28;93469;-62
2023/01/22 23:58:45;;;;;;;;;;;16.40;59.20;;;;;;10371808;28;93262;-62
